createdAt,value
2019-02-09T00:00:01.382Z,34.83
2019-02-09T00:02:34.712Z,30.80
2019-02-09T00:05:06.457Z,32.23
2019-02-09T00:07:38.152Z,36.67
2019-02-09T00:10:09.969Z,36.80
2019-02-09T00:12:41.674Z,41.53
2019-02-09T00:15:13.288Z,37.37
2019-02-09T00:17:45.001Z,33.53
2019-02-09T00:20:16.699Z,33.47
2019-02-09T00:22:48.399Z,43.33
2019-02-09T00:25:20.071Z,38.67
2019-02-09T00:27:51.674Z,31.27
2019-02-09T00:30:23.379Z,36.30
2019-02-09T00:32:55.056Z,41.00
2019-02-09T00:35:26.670Z,54.60
2019-02-09T00:37:58.368Z,38.00
2019-02-09T00:40:30.051Z,45.43
2019-02-09T00:43:01.738Z,43.03
2019-02-09T00:45:33.363Z,42.40
2019-02-09T00:48:04.984Z,39.83
2019-02-09T00:50:36.659Z,39.70
2019-02-09T00:53:08.307Z,39.87
2019-02-09T00:55:39.958Z,36.47
2019-02-09T00:58:11.549Z,43.07
2019-02-09T01:00:43.269Z,41.17
2019-02-09T01:03:14.915Z,38.23
2019-02-09T01:05:46.942Z,38.00
2019-02-09T01:08:18.552Z,34.53
2019-02-09T01:10:50.257Z,36.73
2019-02-09T01:13:21.924Z,41.37
2019-02-09T01:15:53.590Z,33.10
2019-02-09T01:18:25.185Z,32.27
2019-02-09T01:20:56.806Z,33.93
2019-02-09T01:23:28.467Z,27.33
2019-02-09T01:26:00.054Z,29.57
2019-02-09T01:28:31.664Z,29.50
2019-02-09T01:31:03.257Z,25.87
2019-02-09T01:33:34.934Z,33.33
2019-02-09T01:36:07.521Z,28.10
2019-02-09T01:38:39.172Z,29.30
2019-02-09T01:41:10.784Z,31.57
2019-02-09T01:43:42.478Z,30.70
2019-02-09T01:46:14.251Z,30.00
2019-02-09T01:48:46.081Z,27.10
2019-02-09T01:51:17.745Z,34.93
2019-02-09T01:53:49.411Z,30.90
2019-02-09T01:56:21.074Z,26.30
2019-02-09T01:58:53.659Z,31.93
2019-02-09T02:01:25.323Z,33.50
2019-02-09T02:03:56.929Z,31.90
2019-02-09T02:06:28.593Z,32.07
2019-02-09T02:09:00.275Z,31.83
2019-02-09T02:11:33.494Z,25.80
2019-02-09T02:14:05.201Z,31.03
2019-02-09T02:16:36.873Z,33.13
2019-02-09T02:19:08.578Z,29.87
2019-02-09T02:21:40.232Z,33.40
2019-02-09T02:24:11.919Z,28.83
2019-02-09T02:26:43.515Z,30.87
2019-02-09T02:29:15.425Z,26.97
2019-02-09T02:31:47.330Z,32.13
2019-02-09T02:34:19.207Z,30.50
2019-02-09T02:36:50.859Z,24.87
2019-02-09T02:39:22.617Z,32.13
2019-02-09T02:41:54.299Z,35.27
2019-02-09T02:44:25.928Z,26.00
2019-02-09T02:46:57.615Z,29.23
2019-02-09T02:49:29.238Z,33.03
2019-02-09T02:52:00.850Z,35.23
2019-02-09T02:54:32.550Z,31.17
2019-02-09T02:57:04.147Z,29.57
2019-02-09T02:59:35.825Z,32.60
2019-02-09T03:02:07.489Z,28.90
2019-02-09T03:04:39.202Z,29.73
2019-02-09T03:07:10.886Z,29.37
2019-02-09T03:09:42.574Z,26.90
2019-02-09T03:12:14.294Z,33.47
2019-02-09T03:14:46.152Z,30.63
2019-02-09T03:17:17.778Z,29.40
2019-02-09T03:19:49.467Z,26.50
2019-02-09T03:22:21.083Z,30.77
2019-02-09T03:24:52.683Z,29.57
2019-02-09T03:27:24.420Z,25.33
2019-02-09T03:29:56.992Z,27.63
2019-02-09T03:32:28.619Z,26.57
2019-02-09T03:35:00.357Z,25.07
2019-02-09T03:37:32.029Z,24.73
2019-02-09T03:40:03.669Z,25.13
2019-02-09T03:42:35.274Z,26.57
2019-02-09T03:45:09.117Z,28.80
2019-02-09T03:47:40.717Z,25.90
2019-02-09T03:50:13.275Z,25.23
2019-02-09T03:52:44.982Z,24.57
2019-02-09T03:55:16.667Z,31.73
2019-02-09T03:57:48.289Z,24.07
2019-02-09T04:00:21.519Z,25.80
2019-02-09T04:02:53.118Z,29.50
2019-02-09T04:05:24.750Z,23.20
2019-02-09T04:07:56.435Z,24.57
2019-02-09T04:10:28.077Z,25.40
2019-02-09T04:12:59.674Z,26.20
2019-02-09T04:15:31.349Z,24.70
2019-02-09T04:18:03.015Z,24.93
2019-02-09T04:20:35.115Z,24.30
2019-02-09T04:23:06.745Z,29.90
2019-02-09T04:25:38.409Z,26.27
2019-02-09T04:28:10.074Z,25.17
2019-02-09T04:30:41.700Z,24.93
2019-02-09T04:33:13.427Z,24.33
2019-02-09T04:35:45.170Z,26.10
2019-02-09T04:38:16.831Z,20.83
2019-02-09T04:40:48.431Z,26.20
2019-02-09T04:43:20.118Z,25.70
2019-02-09T04:45:51.795Z,22.77
2019-02-09T04:48:23.465Z,26.13
2019-02-09T04:50:55.165Z,23.30
2019-02-09T04:53:26.760Z,35.90
2019-02-09T04:55:58.591Z,37.80
2019-02-09T04:58:30.259Z,20.07
2019-02-09T05:01:01.995Z,22.70
2019-02-09T05:03:37.620Z,18.57
2019-02-09T05:06:10.935Z,20.83
2019-02-09T05:08:42.674Z,23.20
2019-02-09T05:11:14.498Z,19.20
2019-02-09T05:13:46.268Z,22.57
2019-02-09T05:16:18.474Z,19.60
2019-02-09T05:18:50.097Z,22.60
2019-02-09T05:21:21.765Z,25.10
2019-02-09T05:23:53.352Z,18.67
2019-02-09T05:26:24.971Z,21.50
2019-02-09T05:28:56.569Z,20.77
2019-02-09T05:31:28.185Z,20.50
2019-02-09T05:33:59.846Z,20.70
2019-02-09T05:36:31.785Z,30.17
2019-02-09T05:39:04.882Z,20.97
2019-02-09T05:41:37.448Z,19.33
2019-02-09T05:44:09.099Z,23.00
2019-02-09T05:46:40.895Z,21.17
2019-02-09T05:49:12.642Z,17.87
2019-02-09T05:51:44.326Z,30.93
2019-02-09T05:54:16.162Z,24.70
2019-02-09T05:56:47.821Z,19.77
2019-02-09T05:59:20.497Z,58.80
2019-02-09T06:01:52.105Z,67.00
2019-02-09T06:04:23.866Z,383.83
2019-02-09T06:06:55.978Z,360.90
2019-02-09T06:09:27.593Z,477.60
2019-02-09T06:11:59.313Z,523.83
2019-02-09T06:14:30.931Z,46.27
2019-02-09T06:17:03.702Z,81.53
2019-02-09T06:19:35.312Z,23.53
2019-02-09T06:22:06.914Z,54.97
2019-02-09T06:24:38.574Z,41.73
2019-02-09T06:27:10.294Z,20.60
2019-02-09T06:29:41.986Z,40.30
2019-02-09T06:32:13.607Z,136.00
2019-02-09T06:34:45.299Z,26.33
2019-02-09T06:37:16.928Z,29.03
2019-02-09T06:39:48.585Z,26.37
2019-02-09T06:42:20.214Z,20.97
2019-02-09T06:44:51.868Z,23.70
2019-02-09T06:47:23.492Z,91.33
2019-02-09T06:49:55.634Z,27.67
2019-02-09T06:52:27.286Z,24.63
2019-02-09T06:54:58.875Z,19.47
2019-02-09T06:57:30.644Z,28.03
2019-02-09T07:00:02.257Z,22.00
2019-02-09T07:02:35.054Z,24.53
2019-02-09T07:05:07.511Z,26.43
2019-02-09T07:07:39.297Z,33.93
2019-02-09T07:10:11.924Z,23.50
2019-02-09T07:12:43.683Z,24.37
2019-02-09T07:15:18.069Z,27.00
2019-02-09T07:17:49.688Z,29.33
2019-02-09T07:20:21.269Z,38.90
2019-02-09T07:22:52.962Z,22.20
2019-02-09T07:25:25.122Z,24.23
2019-02-09T07:27:56.840Z,29.90
2019-02-09T07:30:29.005Z,27.73
2019-02-09T07:33:00.759Z,32.13
2019-02-09T07:35:32.428Z,44.07
2019-02-09T07:38:04.105Z,68.67
2019-02-09T07:40:35.705Z,34.37
2019-02-09T07:43:08.276Z,33.93
2019-02-09T07:45:39.946Z,32.17
2019-02-09T07:48:11.624Z,43.43
2019-02-09T07:50:43.302Z,26.27
2019-02-09T07:53:14.915Z,30.90
2019-02-09T07:55:46.730Z,26.73
2019-02-09T07:58:18.478Z,30.63
2019-02-09T08:00:50.083Z,34.93
2019-02-09T08:03:21.787Z,35.77
2019-02-09T08:05:53.460Z,37.10
2019-02-09T08:08:25.101Z,34.10
2019-02-09T08:10:56.963Z,26.93
2019-02-09T08:13:28.596Z,35.20
2019-02-09T08:16:00.223Z,34.83
2019-02-09T08:18:31.892Z,37.47
2019-02-09T08:21:03.544Z,35.70
2019-02-09T08:23:35.240Z,36.57
2019-02-09T08:26:06.958Z,40.70
2019-02-09T08:28:39.173Z,81.70
2019-02-09T08:31:11.774Z,39.20
2019-02-09T08:33:45.453Z,41.17
2019-02-09T08:36:17.703Z,33.77
2019-02-09T08:38:49.523Z,52.30
2019-02-09T08:41:21.142Z,32.50
2019-02-09T08:43:53.842Z,43.03
2019-02-09T08:46:25.619Z,61.33
2019-02-09T08:48:57.476Z,40.70
2019-02-09T08:51:30.411Z,36.07
2019-02-09T08:54:02.193Z,44.70
2019-02-09T08:56:33.922Z,39.53
2019-02-09T08:59:05.627Z,39.80
2019-02-09T09:01:37.429Z,44.10
2019-02-09T09:04:09.247Z,36.90
2019-02-09T09:06:41.018Z,27.40
2019-02-09T09:09:13.496Z,48.77
2019-02-09T09:11:45.400Z,42.10
2019-02-09T09:14:17.107Z,31.77
2019-02-09T09:16:48.916Z,43.50
2019-02-09T09:19:20.652Z,46.60
2019-02-09T09:22:29.999Z,50.57
2019-02-09T09:25:01.655Z,36.83
2019-02-09T09:27:33.391Z,36.97
2019-02-09T09:30:07.053Z,37.23
2019-02-09T09:32:38.749Z,38.00
2019-02-09T09:35:10.525Z,28.37
2019-02-09T09:37:42.240Z,34.20
2019-02-09T09:40:20.078Z,56.67
2019-02-09T09:42:51.760Z,58.53
2019-02-09T09:45:25.603Z,49.67
2019-02-09T09:47:57.290Z,35.97
2019-02-09T09:50:29.150Z,55.33
2019-02-09T09:53:00.761Z,49.40
2019-02-09T09:55:32.483Z,48.30
2019-02-09T09:58:04.244Z,52.33
2019-02-09T10:00:36.864Z,49.23
2019-02-09T10:03:08.544Z,58.90
2019-02-09T10:05:40.234Z,40.00
2019-02-09T10:08:11.854Z,66.50
2019-02-09T10:10:44.028Z,55.70
2019-02-09T10:13:15.665Z,76.43
2019-02-09T10:15:47.529Z,37.30
2019-02-09T10:18:19.487Z,46.20
2019-02-09T10:20:51.174Z,27.60
2019-02-09T10:23:22.777Z,123.63
2019-02-09T10:25:54.461Z,56.13
2019-02-09T10:28:26.184Z,65.70
2019-02-09T10:30:57.885Z,104.10
2019-02-09T10:33:29.608Z,71.43
2019-02-09T10:36:01.324Z,69.07
2019-02-09T10:38:32.993Z,104.57
2019-02-09T10:41:04.711Z,51.17
2019-02-09T10:43:37.790Z,49.60
2019-02-09T10:46:09.540Z,53.17
2019-02-09T10:48:41.242Z,31.93
2019-02-09T10:51:12.961Z,32.70
2019-02-09T10:53:44.672Z,22.53
2019-02-09T10:56:16.661Z,27.27
2019-02-09T10:58:48.374Z,26.23
2019-02-09T11:01:21.883Z,23.10
2019-02-09T11:03:53.565Z,28.80
2019-02-09T11:06:25.191Z,31.77
2019-02-09T11:08:56.898Z,25.70
2019-02-09T11:11:28.608Z,28.00
2019-02-09T11:14:00.328Z,22.60
2019-02-09T11:16:32.028Z,19.50
2019-02-09T11:19:03.729Z,40.50
2019-02-09T11:21:35.477Z,24.50
2019-02-09T11:24:07.213Z,24.83
2019-02-09T11:26:39.837Z,31.20
2019-02-09T11:29:11.887Z,42.00
2019-02-09T11:31:47.614Z,33.03
2019-02-09T11:34:19.685Z,64.67
2019-02-09T11:36:51.307Z,127.30
2019-02-09T11:39:23.006Z,51.20
2019-02-09T11:41:54.667Z,81.13
2019-02-09T11:44:26.378Z,32.30
2019-02-09T11:46:58.055Z,37.97
2019-02-09T11:49:29.762Z,36.77
2019-02-09T11:52:01.481Z,52.90
2019-02-09T11:54:33.167Z,144.87
2019-02-09T11:57:04.888Z,57.47
2019-02-09T11:59:36.590Z,135.47
2019-02-09T12:02:09.632Z,58.37
2019-02-09T12:04:41.383Z,140.50
2019-02-09T12:07:13.106Z,57.73
2019-02-09T12:09:44.746Z,51.60
2019-02-09T12:12:16.705Z,53.80
2019-02-09T12:14:48.339Z,17.40
2019-02-09T12:17:19.989Z,21.23
2019-02-09T12:19:51.700Z,11.57
2019-02-09T12:22:23.396Z,15.07
2019-02-09T12:24:55.067Z,12.00
2019-02-09T12:27:26.773Z,18.13
2019-02-09T12:29:59.098Z,18.80
2019-02-09T12:32:32.811Z,14.00
2019-02-09T12:35:05.029Z,11.97
2019-02-09T12:37:36.811Z,17.10
2019-02-09T12:40:10.643Z,12.23
2019-02-09T12:42:42.351Z,9.63
2019-02-09T12:45:15.044Z,22.00
2019-02-09T12:47:46.816Z,26.73
2019-02-09T12:50:19.066Z,19.40
2019-02-09T12:52:50.764Z,19.93
2019-02-09T12:55:22.544Z,13.93
2019-02-09T12:57:54.226Z,17.50
2019-02-09T13:00:56.370Z,11.00
2019-02-09T13:03:31.372Z,10.70
2019-02-09T13:06:01.617Z,11.83
2019-02-09T13:08:37.477Z,8.87
2019-02-09T13:11:17.947Z,10.57
2019-02-09T13:13:53.351Z,11.90
2019-02-09T13:16:25.767Z,11.27
2019-02-09T13:18:57.536Z,17.73
2019-02-09T13:21:33.607Z,9.83
2019-02-09T13:24:05.570Z,18.40
2019-02-09T13:26:39.424Z,15.23
2019-02-09T13:33:38.848Z,26.77
2019-02-09T13:36:11.857Z,18.07
2019-02-09T13:39:17.129Z,20.40
2019-02-09T13:42:23.549Z,15.57
2019-02-09T13:45:25.604Z,20.03
2019-02-09T13:48:10.928Z,20.23
2019-02-09T13:50:51.116Z,20.40
2019-02-09T13:53:51.670Z,17.50
2019-02-09T13:59:55.485Z,16.80
2019-02-09T14:02:36.973Z,31.60
2019-02-09T14:06:12.258Z,18.17
2019-02-09T14:09:25.848Z,17.57
2019-02-09T14:12:11.142Z,28.87
2019-02-09T14:14:52.336Z,21.97
2019-02-09T14:17:59.212Z,20.90
2019-02-09T14:20:39.242Z,16.87
2019-02-09T14:24:01.982Z,46.47
2019-02-09T14:27:17.496Z,22.10
2019-02-09T14:31:00.616Z,30.40
2019-02-09T14:33:44.172Z,18.73
2019-02-09T14:36:23.252Z,38.50
2019-02-09T14:39:05.063Z,28.00
2019-02-09T14:42:28.880Z,180.63
2019-02-09T14:45:07.106Z,53.43
2019-02-09T14:47:57.542Z,68.07
2019-02-09T14:50:32.579Z,19.47
2019-02-09T14:53:09.956Z,18.73
2019-02-09T14:55:47.883Z,26.70
2019-02-09T14:58:26.448Z,37.17
2019-02-09T15:01:04.351Z,29.53
2019-02-09T15:03:47.453Z,50.17
2019-02-09T15:06:37.208Z,63.30
2019-02-09T15:09:17.583Z,53.83
2019-02-09T15:12:11.802Z,34.77
2019-02-09T15:15:24.171Z,31.17
2019-02-09T15:21:20.820Z,27.60
2019-02-09T15:23:54.916Z,31.03
2019-02-09T15:26:31.019Z,34.80
2019-02-09T15:29:08.046Z,31.20
2019-02-09T15:31:41.788Z,26.93
2019-02-09T15:34:20.516Z,20.10
2019-02-09T15:36:55.156Z,27.90
2019-02-09T15:39:32.444Z,29.63
2019-02-09T15:42:09.651Z,25.97
2019-02-09T15:44:46.335Z,32.03
2019-02-09T15:47:20.421Z,28.93
2019-02-09T15:49:57.194Z,40.87
2019-02-09T15:52:33.626Z,85.80
2019-02-09T15:55:12.871Z,59.73
2019-02-09T15:57:50.088Z,40.77
2019-02-09T16:00:28.259Z,57.07
2019-02-09T16:03:02.291Z,39.40
2019-02-09T16:05:37.540Z,32.67
2019-02-09T16:08:14.385Z,38.63
2019-02-09T16:10:49.431Z,30.13
2019-02-09T16:13:27.381Z,54.17
2019-02-09T16:16:05.503Z,46.00
2019-02-09T16:18:43.477Z,50.80
2019-02-09T16:21:22.968Z,49.80
2019-02-09T16:24:00.422Z,38.60
2019-02-09T16:26:40.931Z,47.63
2019-02-09T16:29:28.711Z,58.00
2019-02-09T16:32:07.485Z,35.53
2019-02-09T16:34:43.913Z,45.23
2019-02-09T16:37:28.183Z,39.90
2019-02-09T16:40:06.187Z,53.13
2019-02-09T16:42:41.076Z,38.23
2019-02-09T16:45:26.873Z,47.03
2019-02-09T16:48:10.366Z,43.83
2019-02-09T16:50:50.578Z,43.37
2019-02-09T16:53:27.248Z,53.87
2019-02-09T16:56:08.402Z,48.87
2019-02-09T16:59:44.393Z,223.73
2019-02-09T17:03:30.859Z,201.97
2019-02-09T17:06:18.156Z,62.10
2019-02-09T17:08:53.484Z,91.50
2019-02-09T17:11:29.510Z,33.37
2019-02-09T17:14:03.478Z,65.30
2019-02-09T17:16:38.775Z,51.73
2019-02-09T17:19:17.413Z,32.53
2019-02-09T17:21:51.709Z,32.50
2019-02-09T17:24:26.915Z,25.00
2019-02-09T17:27:15.864Z,31.90
2019-02-09T17:29:50.133Z,68.47
2019-02-09T17:32:27.117Z,34.50
2019-02-09T17:35:04.864Z,52.00
2019-02-09T17:50:08.536Z,39.93
2019-02-09T17:52:44.663Z,44.53
2019-02-09T17:55:24.359Z,67.20
2019-02-09T17:58:09.878Z,45.03
2019-02-09T18:00:44.740Z,54.70
2019-02-09T18:03:25.931Z,45.77
2019-02-09T18:06:00.933Z,46.10
2019-02-09T18:08:35.807Z,39.13
2019-02-09T18:11:13.616Z,65.67
2019-02-09T18:14:27.790Z,65.97
2019-02-09T18:17:06.376Z,62.47
2019-02-09T18:19:48.038Z,35.30
2019-02-09T18:22:26.669Z,64.67
2019-02-09T18:25:05.701Z,32.97
2019-02-09T18:27:43.807Z,23.03
2019-02-09T18:30:25.300Z,55.00
2019-02-09T18:33:14.676Z,28.87
2019-02-09T18:39:09.308Z,84.70
2019-02-09T18:41:55.643Z,34.93
2019-02-09T18:44:38.055Z,285.30
2019-02-09T18:47:13.896Z,177.50
2019-02-09T18:49:52.798Z,166.00
2019-02-09T18:52:28.175Z,80.30
2019-02-09T18:55:07.896Z,86.53
2019-02-09T18:57:41.826Z,51.50
2019-02-09T19:00:18.544Z,24.67
2019-02-09T19:02:55.636Z,22.07
2019-02-09T19:05:29.439Z,39.57
2019-02-09T19:08:06.452Z,35.47
2019-02-09T19:11:05.727Z,31.07
2019-02-09T19:13:49.875Z,99.93
2019-02-09T19:16:27.899Z,60.10
2019-02-09T19:19:03.238Z,69.27
2019-02-09T19:21:49.450Z,30.67
2019-02-09T19:24:25.716Z,58.67
2019-02-09T19:27:03.545Z,68.27
2019-02-09T19:29:42.923Z,41.33
2019-02-09T19:32:22.239Z,124.67
2019-02-09T19:34:59.455Z,48.93
2019-02-09T19:37:37.277Z,47.10
2019-02-09T19:40:13.652Z,56.57
2019-02-09T19:42:51.282Z,55.00
2019-02-09T19:45:29.641Z,31.63
2019-02-09T19:48:04.153Z,42.87
2019-02-09T19:50:42.984Z,54.47
2019-02-09T19:53:19.283Z,33.33
2019-02-09T19:55:59.901Z,67.67
2019-02-09T19:58:35.226Z,50.73
2019-02-09T20:01:11.333Z,36.83
2019-02-09T20:03:50.078Z,42.37
2019-02-09T20:06:26.326Z,29.50
2019-02-09T20:09:04.795Z,22.23
2019-02-09T20:11:39.815Z,24.87
2019-02-09T20:14:23.786Z,21.83
2019-02-09T20:16:57.634Z,44.90
2019-02-09T20:19:40.379Z,34.50
2019-02-09T20:22:19.534Z,46.10
2019-02-09T20:24:53.185Z,32.53
2019-02-09T20:27:24.912Z,27.07
2019-02-09T20:29:57.644Z,31.33
2019-02-09T20:32:29.716Z,73.00
2019-02-09T20:35:01.498Z,33.00
2019-02-09T20:37:33.212Z,128.33
2019-02-09T20:40:05.506Z,55.03
2019-02-09T20:42:37.234Z,26.63
2019-02-09T20:45:10.683Z,38.83
2019-02-09T20:47:47.944Z,63.13
2019-02-09T20:50:15.934Z,27.53
2019-02-09T20:52:47.633Z,23.30
2019-02-09T20:55:19.390Z,41.83
2019-02-09T20:57:51.309Z,40.80
2019-02-09T21:00:24.187Z,59.30
2019-02-09T21:02:57.987Z,79.53
2019-02-09T21:05:35.970Z,90.33
2019-02-09T21:08:03.437Z,48.13
2019-02-09T21:10:35.350Z,26.93
2019-02-09T21:13:07.351Z,26.67
2019-02-09T21:15:39.062Z,44.10
2019-02-09T21:18:10.751Z,42.17
2019-02-09T21:20:42.473Z,71.30
2019-02-09T21:23:14.187Z,25.37
2019-02-09T21:25:46.100Z,106.67
2019-02-09T21:28:17.795Z,12.10
2019-02-09T21:30:49.489Z,15.17
2019-02-09T21:33:21.414Z,10.27
2019-02-09T21:35:53.339Z,10.33
2019-02-09T21:38:25.029Z,14.87
2019-02-09T21:40:56.925Z,7.37
2019-02-09T21:43:30.390Z,12.03
2019-02-09T21:46:02.188Z,11.47
2019-02-09T21:48:33.910Z,10.93
2019-02-09T21:51:05.993Z,11.70
2019-02-09T21:53:37.827Z,7.50
2019-02-09T21:56:09.841Z,9.70
2019-02-09T21:58:41.919Z,8.13
2019-02-09T22:01:13.717Z,11.07
2019-02-09T22:03:47.133Z,11.07
2019-02-09T22:06:18.849Z,9.93
2019-02-09T22:08:50.566Z,12.50
2019-02-09T22:11:22.373Z,13.73
2019-02-09T22:13:55.110Z,9.00
2019-02-09T22:16:26.864Z,13.00
2019-02-09T22:18:59.249Z,14.30
2019-02-09T22:21:31.213Z,13.53
2019-02-09T22:24:03.001Z,12.70
2019-02-09T22:26:34.763Z,14.90
2019-02-09T22:29:06.462Z,11.20
2019-02-09T22:31:38.486Z,15.53
2019-02-09T22:34:10.314Z,16.30
2019-02-09T22:36:42.092Z,15.20
2019-02-09T22:39:13.771Z,15.53
2019-02-09T22:41:49.182Z,15.97
2019-02-09T22:44:19.419Z,12.60
2019-02-09T22:46:51.954Z,23.50
2019-02-09T22:49:23.630Z,12.93
2019-02-09T22:51:55.233Z,9.87
2019-02-09T22:54:26.840Z,10.63
2019-02-09T22:56:58.498Z,12.27
2019-02-09T22:59:30.103Z,12.20
2019-02-09T23:02:01.810Z,12.73
2019-02-09T23:05:10.805Z,14.20
2019-02-09T23:07:42.861Z,14.10
2019-02-09T23:10:15.304Z,11.90
2019-02-09T23:12:48.715Z,13.77
2019-02-09T23:15:20.312Z,9.27
2019-02-09T23:17:51.983Z,16.87
2019-02-09T23:20:23.577Z,52.00
2019-02-09T23:22:55.264Z,82.53
2019-02-09T23:25:26.941Z,34.60
2019-02-09T23:27:59.636Z,14.47
2019-02-09T23:30:31.757Z,9.03
2019-02-09T23:33:03.440Z,14.23
2019-02-09T23:35:35.108Z,15.90
2019-02-09T23:38:06.722Z,11.67
2019-02-09T23:40:38.384Z,18.20
2019-02-09T23:43:10.054Z,12.10
2019-02-09T23:45:41.733Z,11.47
2019-02-09T23:48:13.418Z,8.87
2019-02-09T23:50:45.208Z,15.37
2019-02-09T23:53:16.905Z,9.80
2019-02-09T23:55:48.499Z,42.20
2019-02-09T23:58:20.308Z,118.03
